RJNO(METAR)
12/11 16:00
RJNO 110700Z 12008KT 9999 RA FEW010 SCT020 BKN030 OVCXXX 08/06 Q1021
RMK A3016=
戻る
トップページへ戻る
IMOC Co,.Ltd.